Time;durP1;ratioP1;P1;durP2;ratioP2;P2;SDS_P1;SDS_P2;PMS_P1;PMS_P2;Temp;Humidity;BMP_temperature;BMP_pressure;BME280_temperature;BME280_humidity;BME280_pressure;Samples;Min_cycle;Max_cycle;Signal;HPM_P1;HPM_P2
2022/07/27 00:02:29;;;;;;;3.33;0.90;;;14.70;99.90;;;;;;4798634;29;20060;-91
2022/07/27 00:05:00;;;;;;;4.10;1.00;;;14.80;99.90;;;;;;4828009;29;20057;-91
2022/07/27 00:07:32;;;;;;;0.57;0.57;;;14.70;99.90;;;;;;4826870;29;20428;-90
2022/07/27 00:10:07;;;;;;;;;;;;;;;;;;;;;
2022/07/27 00:12:53;;;;;;;1.45;1.35;;;14.90;99.90;;;;;;4825747;29;20634;-90
2022/07/27 00:15:29;;;;;;;1.98;0.85;;;14.90;99.90;;;;;;4794305;29;20046;-90
2022/07/27 00:17:59;;;;;;;3.17;1.30;;;14.90;99.90;;;;;;4799881;29;20054;-91
2022/07/27 00:20:27;;;;;;;2.35;1.58;;;14.90;99.90;;;;;;4803594;29;20471;-91
2022/07/27 00:22:58;;;;;;;1.73;1.60;;;14.90;99.90;;;;;;4807465;29;20042;-91
2022/07/27 00:28:16;;;;;;;1.88;0.82;;;15.00;99.90;;;;;;4827114;29;20627;-92
2022/07/27 00:30:46;;;;;;;1.77;1.00;;;14.90;99.90;;;;;;4811676;29;20042;-91
2022/07/27 00:33:30;;;;;;;1.08;0.60;;;14.70;99.90;;;;;;4811289;29;20079;-91
2022/07/27 00:36:00;;;;;;;2.58;1.00;;;14.20;99.90;;;;;;4798591;29;20094;-91
2022/07/27 00:38:32;;;;;;;1.27;0.77;;;15.00;99.90;;;;;;4812468;29;20065;-91
2022/07/27 00:40:58;;;;;;;1.17;0.80;;;14.90;99.90;;;;;;4796439;29;20141;-91
2022/07/27 00:43:33;;;;;;;2.75;1.30;;;14.80;99.90;;;;;;4811116;29;20133;-91
2022/07/27 00:49:04;;;;;;;2.17;1.08;;;14.80;99.90;;;;;;4826482;29;20054;-91
2022/07/27 00:51:51;;;;;;;1.23;1.00;;;14.70;99.90;;;;;;4811218;29;20079;-91
2022/07/27 00:54:23;;;;;;;0.60;0.50;;;14.60;99.90;;;;;;4825483;29;20046;-91
2022/07/27 00:57:02;;;;;;;;;;;;;;;;;;;;;
2022/07/27 00:59:34;;;;;;;2.35;1.73;;;14.40;99.90;;;;;;4826087;29;20105;-91
2022/07/27 01:02:03;;;;;;;3.38;2.00;;;14.40;99.90;;;;;;4796625;29;20042;-91
2022/07/27 01:04:32;;;;;;;3.95;1.05;;;14.30;99.90;;;;;;4811357;29;20798;-91
2022/07/27 01:07:11;;;;;;;3.35;1.02;;;14.30;99.90;;;;;;4826667;29;20069;-91
2022/07/27 01:09:57;;;;;;;1.52;1.20;;;14.20;99.90;;;;;;4811389;29;20057;-92
2022/07/27 01:12:55;;;;;;;1.85;0.60;;;14.90;99.90;;;;;;4811106;29;20049;-92
2022/07/27 01:15:24;;;;;;;1.80;1.20;;;14.20;99.90;;;;;;4811286;29;20088;-90
2022/07/27 01:17:50;;;;;;;4.45;1.55;;;13.90;99.90;;;;;;4810919;29;20050;-91
2022/07/27 01:20:33;;;;;;;1.45;0.70;;;14.00;99.90;;;;;;4811617;29;20050;-91
2022/07/27 01:23:04;;;;;;;2.22;1.10;;;14.00;99.90;;;;;;4826929;29;20494;-91
2022/07/27 01:25:35;;;;;;;1.92;1.35;;;13.90;99.90;;;;;;4806479;29;20056;-92
2022/07/27 01:28:08;;;;;;;1.10;0.98;;;13.90;99.90;;;;;;4808841;29;20050;-91
2022/07/27 01:30:44;;;;;;;1.45;0.93;;;13.90;99.90;;;;;;4810063;29;20062;-90
2022/07/27 01:33:15;;;;;;;2.00;1.08;;;13.80;99.90;;;;;;4814228;29;20054;-91
2022/07/27 01:35:41;;;;;;;1.17;0.80;;;14.60;99.90;;;;;;4797576;29;20057;-91
2022/07/27 01:38:13;;;;;;;1.40;1.15;;;13.60;99.90;;;;;;4811999;29;20053;-91
2022/07/27 01:43:27;;;;;;;2.70;1.10;;;13.80;99.90;;;;;;4822923;29;20054;-91
2022/07/27 01:46:15;;;;;;;1.50;1.13;;;13.80;99.90;;;;;;4794677;29;20093;-90
2022/07/27 01:48:45;;;;;;;;;;;13.70;99.90;;;;;;4810873;29;20093;-90
2022/07/27 01:51:14;;;;;;;5.82;1.60;;;13.70;99.90;;;;;;4809380;29;19924;-92
2022/07/27 01:53:49;;;;;;;1.00;0.93;;;13.60;99.90;;;;;;4792043;29;20090;-91
2022/07/27 01:56:17;;;;;;;1.33;0.73;;;13.50;99.90;;;;;;4793278;29;20065;-91
2022/07/27 01:58:46;;;;;;;2.05;0.90;;;13.40;99.90;;;;;;4792587;29;20137;-92
2022/07/27 02:01:15;;;;;;;2.47;0.90;;;13.30;99.90;;;;;;4807840;29;20133;-91
2022/07/27 02:03:44;;;;;;;2.28;1.17;;;13.40;99.90;;;;;;4820591;29;20049;-91
2022/07/27 02:06:16;;;;;;;1.90;0.93;;;13.40;99.90;;;;;;4792734;29;20529;-91
2022/07/27 02:08:50;;;;;;;1.42;0.90;;;12.90;99.90;;;;;;4810875;29;20145;-91
2022/07/27 02:14:08;;;;;;;1.20;0.90;;;14.10;99.90;;;;;;4825255;29;20060;-92
2022/07/27 02:16:46;;;;;;;1.73;1.08;;;13.30;99.90;;;;;;4826089;29;20057;-91
2022/07/27 02:19:19;;;;;;;0.60;0.60;;;13.20;99.90;;;;;;4810111;29;20054;-92
2022/07/27 02:21:47;;;;;;;1.08;0.85;;;12.20;99.90;;;;;;4796194;29;20054;-91
2022/07/27 02:24:16;;;;;;;1.63;0.90;;;12.90;99.90;;;;;;4792345;29;20133;-91
2022/07/27 02:26:42;;;;;;;1.80;1.17;;;12.90;99.90;;;;;;4792369;29;20407;-91
2022/07/27 02:29:11;;;;;;;1.85;0.80;;;12.90;99.90;;;;;;4808745;29;20061;-91
2022/07/27 02:31:57;;;;;;;1.67;0.90;;;12.80;99.90;;;;;;4810217;29;20045;-92
2022/07/27 02:34:27;;;;;;;0.75;0.70;;;12.80;99.90;;;;;;4810195;29;20064;-92
2022/07/27 02:36:55;;;;;;;0.88;0.70;;;12.70;99.90;;;;;;4795352;29;20046;-91
2022/07/27 02:39:23;;;;;;;3.42;0.52;;;13.80;99.90;;;;;;4796347;29;20076;-91
2022/07/27 02:41:56;;;;;;;2.25;0.60;;;12.60;99.90;;;;;;4809557;29;20053;-92
2022/07/27 02:44:34;;;;;;;3.55;0.80;;;12.60;99.90;;;;;;4809336;29;20054;-92
2022/07/27 02:47:15;;;;;;;1.30;1.10;;;12.60;99.90;;;;;;4796656;29;20054;-92
2022/07/27 02:49:46;;;;;;;0.70;0.70;;;12.30;99.90;;;;;;4797486;29;20110;-91
2022/07/27 02:52:12;;;;;;;702.47;294.95;;;12.90;99.90;;;;;;4795808;29;20050;-92
2022/07/27 02:54:40;;;;;;;2.45;1.23;;;12.30;99.90;;;;;;4794877;29;20386;-91
2022/07/27 02:57:06;;;;;;;1.25;1.10;;;12.30;99.90;;;;;;4814398;29;20062;-91
2022/07/27 02:59:34;;;;;;;3.30;1.80;;;12.30;99.90;;;;;;4814096;29;20085;-91
2022/07/27 03:02:15;;;;;;;4.43;1.80;;;12.30;99.90;;;;;;4812958;29;20311;-91
2022/07/27 03:04:43;;;;;;;2.85;1.50;;;12.10;99.90;;;;;;4813332;29;20110;-93
2022/07/27 03:07:16;;;;;;;2.13;1.80;;;12.10;99.90;;;;;;4797747;29;20244;-91
2022/07/27 03:09:45;;;;;;;4.57;2.22;;;12.00;99.90;;;;;;4813874;29;20050;-91
2022/07/27 03:12:16;;;;;;;115.00;32.50;;;11.80;99.90;;;;;;4813695;29;20455;-91
2022/07/27 03:14:45;;;;;;;2.10;1.50;;;12.00;99.90;;;;;;4816736;29;20126;-91
2022/07/27 03:17:14;;;;;;;3.22;1.45;;;11.90;99.90;;;;;;4795763;29;20053;-91
2022/07/27 03:19:40;;;;;;;2.03;1.58;;;11.90;99.90;;;;;;4810829;29;20050;-92
2022/07/27 03:22:11;;;;;;;2.10;1.90;;;11.90;99.90;;;;;;4810214;29;20106;-94
2022/07/27 03:24:37;;;;;;;1.45;1.02;;;12.00;99.90;;;;;;4800338;29;20398;-91
2022/07/27 03:27:03;;;;;;;3.20;1.77;;;12.00;99.90;;;;;;4811079;29;20468;-91
2022/07/27 03:29:39;;;;;;;1.30;1.20;;;11.90;99.90;;;;;;4798855;29;20050;-92
2022/07/27 03:32:09;;;;;;;2.38;1.30;;;11.90;99.90;;;;;;4812587;29;20057;-92
2022/07/27 03:34:47;;;;;;;2.03;1.65;;;12.00;99.90;;;;;;4813842;29;20393;-91
2022/07/27 03:37:18;;;;;;;3.47;1.48;;;12.00;99.90;;;;;;4799330;29;20054;-91
2022/07/27 03:39:55;;;;;;;2.67;1.58;;;12.00;99.90;;;;;;4813808;29;20085;-93
2022/07/27 03:42:23;;;;;;;2.50;1.40;;;12.10;99.90;;;;;;4809996;29;20137;-92
2022/07/27 03:45:12;;;;;;;1.63;1.40;;;12.10;99.90;;;;;;4812740;29;20050;-91
2022/07/27 03:47:43;;;;;;;3.42;1.75;;;12.50;99.90;;;;;;4813280;29;20493;-92
2022/07/27 03:50:24;;;;;;;2.17;2.00;;;12.30;99.90;;;;;;4784057;29;20054;-91
2022/07/27 03:52:57;;;;;;;2.63;1.63;;;12.40;99.90;;;;;;4813046;29;20094;-91
2022/07/27 03:55:29;;;;;;;2.70;1.40;;;12.40;99.90;;;;;;4813271;29;20057;-91
2022/07/27 03:57:55;;;;;;;1.48;1.10;;;12.40;99.90;;;;;;4809216;29;20046;-91
2022/07/27 04:00:23;;;;;;;1.40;1.30;;;11.80;99.90;;;;;;4810500;29;20058;-91
2022/07/27 04:02:59;;;;;;;2.40;0.80;;;12.50;99.90;;;;;;4809444;29;21045;-93
2022/07/27 04:05:28;;;;;;;1.77;1.10;;;12.40;99.90;;;;;;4801122;29;20121;-91
2022/07/27 04:08:07;;;;;;;;;;;;;;;;;;;;;
2022/07/27 04:10:38;;;;;;;1.05;0.80;;;12.50;99.90;;;;;;4829982;29;20093;-91
2022/07/27 04:13:09;;;;;;;0.63;0.63;;;12.50;99.90;;;;;;4785029;29;20114;-91
2022/07/27 04:15:40;;;;;;;1.17;1.02;;;12.50;99.90;;;;;;4798724;29;20088;-91
2022/07/27 04:18:13;;;;;;;1.05;0.73;;;12.50;99.90;;;;;;4811199;29;20061;-91
2022/07/27 04:20:39;;;;;;;1.02;0.52;;;13.00;99.90;;;;;;4797474;29;20046;-92
2022/07/27 04:23:09;;;;;;;0.87;0.60;;;12.60;99.90;;;;;;4811054;29;20052;-93
2022/07/27 04:25:40;;;;;;;0.60;0.60;;;11.80;99.90;;;;;;4811425;29;20096;-91
2022/07/27 04:28:11;;;;;;;0.60;0.55;;;12.90;99.90;;;;;;4811202;29;20103;-92
2022/07/27 04:30:42;;;;;;;0.57;0.40;;;12.60;99.90;;;;;;4812116;29;20085;-91
2022/07/27 04:33:10;;;;;;;1.10;0.63;;;12.60;99.90;;;;;;4811526;29;20049;-91
2022/07/27 04:35:48;;;;;;;0.40;0.38;;;12.10;99.90;;;;;;4796374;29;20105;-91
2022/07/27 04:38:22;;;;;;;0.45;0.30;;;12.60;99.90;;;;;;4808900;29;20073;-91
2022/07/27 04:40:51;;;;;;;0.65;0.45;;;12.70;99.90;;;;;;4793493;29;20574;-91
2022/07/27 04:43:19;;;;;;;0.75;0.38;;;12.70;99.90;;;;;;4837879;29;20046;-91
2022/07/27 04:45:45;;;;;;;0.35;0.35;;;12.70;99.90;;;;;;4799795;29;20054;-91
2022/07/27 04:48:17;;;;;;;0.65;0.50;;;12.70;99.90;;;;;;4806695;29;20046;-92
2022/07/27 04:50:45;;;;;;;0.50;0.30;;;12.80;99.90;;;;;;4794214;29;20061;-91
2022/07/27 04:53:19;;;;;;;0.10;0.10;;;12.80;99.90;;;;;;4822512;29;20056;-91
2022/07/27 04:55:50;;;;;;;0.63;0.30;;;12.70;99.90;;;;;;4809367;29;20097;-91
2022/07/27 04:58:22;;;;;;;0.60;0.40;;;12.80;99.90;;;;;;4792960;29;20047;-91
2022/07/27 05:00:52;;;;;;;0.20;0.20;;;11.80;99.90;;;;;;4793246;29;20092;-90
2022/07/27 05:03:21;;;;;;;0.32;0.20;;;12.80;99.90;;;;;;4793071;29;20050;-91
2022/07/27 05:05:47;;;;;;;0.23;0.20;;;12.80;99.90;;;;;;4713128;29;2399085;-91
2022/07/27 05:08:15;;;;;;;0.40;0.20;;;12.80;99.90;;;;;;4806887;29;20490;-92
2022/07/27 05:10:41;;;;;;;0.40;0.32;;;12.90;99.90;;;;;;4808695;29;20509;-91
2022/07/27 05:15:52;;;;;;;0.40;0.40;;;13.00;99.90;;;;;;4825013;29;20329;-91
2022/07/27 05:18:26;;;;;;;0.17;0.08;;;13.10;99.90;;;;;;4810677;29;20053;-91
2022/07/27 05:21:02;;;;;;;0.10;0.10;;;13.20;99.90;;;;;;4811969;29;20049;-91
2022/07/27 05:23:36;;;;;;;0.22;0.22;;;13.10;99.90;;;;;;4811411;29;20466;-90
2022/07/27 05:26:09;;;;;;;0.15;0.15;;;12.90;99.90;;;;;;4811412;29;20497;-91
2022/07/27 05:28:36;;;;;;;0.68;0.22;;;13.10;99.90;;;;;;4810557;29;20128;-91
2022/07/27 05:31:04;;;;;;;0.10;0.00;;;13.30;99.90;;;;;;4811573;29;20049;-92
2022/07/27 05:33:47;;;;;;;0.27;0.20;;;13.20;99.90;;;;;;4811364;29;20073;-91
2022/07/27 05:36:16;;;;;;;0.10;0.10;;;13.20;99.90;;;;;;4796717;29;20314;-91
2022/07/27 05:38:42;;;;;;;0.10;0.10;;;13.20;99.90;;;;;;4825517;29;20494;-91
2022/07/27 05:41:11;;;;;;;0.83;0.10;;;13.20;99.90;;;;;;4810949;29;20060;-91
2022/07/27 05:43:42;;;;;;;0.45;0.10;;;13.40;99.90;;;;;;4807464;29;20494;-91
2022/07/27 05:46:10;;;;;;;0.03;0.03;;;13.30;99.90;;;;;;4809821;29;20049;-91
2022/07/27 05:48:39;;;;;;;0.40;0.08;;;13.40;99.90;;;;;;4810228;29;20057;-92
2022/07/27 05:51:29;;;;;;;0.00;0.00;;;13.40;99.90;;;;;;4810651;29;20509;-92
2022/07/27 05:54:06;;;;;;;0.17;0.17;;;12.80;99.90;;;;;;4797376;29;20142;-91
2022/07/27 05:56:34;;;;;;;0.10;0.10;;;14.20;99.90;;;;;;4810431;29;20519;-91
2022/07/27 05:59:17;;;;;;;;;;;;;;;;;;;;;
2022/07/27 06:01:43;;;;;;;0.08;0.03;;;13.40;99.90;;;;;;4825632;29;20054;-91
2022/07/27 06:04:24;;;;;;;0.05;0.05;;;13.70;99.90;;;;;;4810961;29;20137;-91
2022/07/27 06:09:34;;;;;;;0.32;0.10;;;13.60;99.90;;;;;;4834274;29;20061;-91
2022/07/27 06:12:03;;;;;;;0.10;0.10;;;13.80;99.90;;;;;;4810781;29;20060;-91
2022/07/27 06:14:39;;;;;;;0.00;0.00;;;13.80;99.90;;;;;;4840952;29;20442;-90
2022/07/27 06:17:06;;;;;;;0.00;0.00;;;13.80;99.90;;;;;;4809664;29;20064;-91
2022/07/27 06:19:38;;;;;;;0.17;0.05;;;13.90;99.90;;;;;;4810466;29;20085;-91
2022/07/27 06:22:12;;;;;;;0.10;0.10;;;14.00;99.90;;;;;;4811301;29;20092;-92
2022/07/27 06:24:37;;;;;;;0.00;0.00;;;14.00;99.90;;;;;;4811054;29;20148;-91
2022/07/27 06:27:03;;;;;;;0.10;0.10;;;14.00;99.90;;;;;;4825867;29;20126;-90
2022/07/27 06:29:37;;;;;;;0.20;0.20;;;14.00;99.90;;;;;;4822488;29;20045;-91
2022/07/27 06:32:23;;;;;;;0.03;0.03;;;14.90;99.90;;;;;;4811488;29;20151;-94
2022/07/27 06:35:04;;;;;;;0.00;0.00;;;14.00;99.90;;;;;;4811633;29;20512;-95
2022/07/27 06:37:40;;;;;;;0.10;0.10;;;14.00;99.90;;;;;;4796484;29;20054;-95
2022/07/27 06:40:28;;;;;;;0.10;0.10;;;14.00;99.90;;;;;;4811186;29;20061;-96
2022/07/27 06:42:54;;;;;;;0.05;0.05;;;14.00;99.90;;;;;;4813762;29;20114;-87
2022/07/27 06:45:20;;;;;;;0.00;0.00;;;13.90;99.90;;;;;;4825866;29;20099;-85
2022/07/27 06:47:47;;;;;;;0.00;0.00;;;13.90;99.90;;;;;;4826049;29;20054;-85
2022/07/27 06:50:13;;;;;;;;;;;14.00;99.90;;;;;;4826989;29;20054;-88
2022/07/27 06:52:41;;;;;;;0.10;0.10;;;14.00;99.90;;;;;;4842866;29;19931;-85
2022/07/27 06:55:09;;;;;;;0.20;0.20;;;14.00;99.90;;;;;;4826445;29;20049;-84
2022/07/27 06:57:35;;;;;;;0.08;0.08;;;14.20;99.90;;;;;;4826129;29;20129;-84
2022/07/27 07:00:01;;;;;;;0.23;0.10;;;14.10;99.90;;;;;;4840991;29;20145;-85
2022/07/27 07:02:27;;;;;;;0.00;0.00;;;14.10;99.90;;;;;;4825365;29;20057;-83
2022/07/27 07:04:52;;;;;;;0.00;0.00;;;14.20;99.90;;;;;;4825763;29;20472;-82
2022/07/27 07:07:19;;;;;;;0.10;0.03;;;14.30;99.90;;;;;;4806843;29;20055;-84
2022/07/27 07:09:45;;;;;;;0.40;0.17;;;14.40;99.90;;;;;;4822183;29;20407;-85
2022/07/27 07:12:11;;;;;;;0.03;0.03;;;14.50;99.90;;;;;;4810170;29;20066;-83
2022/07/27 07:14:36;;;;;;;0.20;0.10;;;14.50;99.90;;;;;;4841400;29;20553;-82
2022/07/27 07:17:02;;;;;;;0.10;0.10;;;14.60;99.90;;;;;;4823072;29;20056;-83
2022/07/27 07:19:28;;;;;;;0.30;0.10;;;14.70;99.90;;;;;;4821884;29;20455;-87
2022/07/27 07:21:54;;;;;;;0.10;0.10;;;14.80;99.90;;;;;;4824153;29;20085;-85
2022/07/27 07:24:20;;;;;;;0.10;0.10;;;14.90;99.90;;;;;;4834824;29;20038;-84
2022/07/27 07:26:45;;;;;;;0.10;0.10;;;15.00;99.90;;;;;;4825219;29;20106;-84
2022/07/27 07:29:11;;;;;;;0.10;0.10;;;15.20;99.90;;;;;;4822947;29;20497;-83
2022/07/27 07:31:37;;;;;;;0.07;0.07;;;15.30;99.90;;;;;;4806431;29;20049;-86
2022/07/27 07:34:02;;;;;;;0.00;0.00;;;15.40;99.90;;;;;;4809265;29;20134;-86
2022/07/27 07:36:28;;;;;;;0.90;0.30;;;15.50;99.90;;;;;;4837986;29;20046;-87
2022/07/27 07:38:54;;;;;;;0.00;0.00;;;15.60;99.90;;;;;;4792365;29;20299;-86
2022/07/27 07:41:22;;;;;;;0.10;0.10;;;15.60;99.90;;;;;;4808991;29;20050;-87
2022/07/27 07:43:48;;;;;;;0.20;0.10;;;15.60;99.90;;;;;;4826195;29;20418;-87
2022/07/27 07:46:16;;;;;;;0.20;0.20;;;15.70;99.90;;;;;;4820264;29;20050;-87
2022/07/27 07:48:42;;;;;;;0.20;0.20;;;15.80;99.90;;;;;;4807076;29;20050;-86
2022/07/27 07:51:09;;;;;;;0.43;0.10;;;15.90;99.90;;;;;;4826240;29;20066;-87
2022/07/27 07:53:34;;;;;;;0.10;0.03;;;16.10;99.90;;;;;;4825223;29;20057;-86
2022/07/27 07:56:01;;;;;;;0.10;0.10;;;16.20;99.90;;;;;;4810818;29;20058;-85
2022/07/27 07:58:27;;;;;;;0.10;0.10;;;16.40;99.90;;;;;;4812977;29;20089;-86
2022/07/27 08:00:53;;;;;;;0.00;0.00;;;16.50;99.90;;;;;;4808748;29;20104;-87
2022/07/27 08:03:19;;;;;;;;;;;16.70;99.90;;;;;;4828179;29;20049;-87
2022/07/27 08:05:45;;;;;;;0.08;0.08;;;16.80;99.90;;;;;;4825797;29;20337;-87
2022/07/27 08:08:11;;;;;;;0.10;0.10;;;16.80;99.90;;;;;;4810456;29;20395;-86
2022/07/27 08:10:37;;;;;;;0.00;0.00;;;17.00;99.90;;;;;;4795284;29;20307;-86
2022/07/27 08:13:03;;;;;;;0.10;0.10;;;17.10;99.90;;;;;;4828126;29;20134;-84
2022/07/27 08:15:29;;;;;;;0.00;0.00;;;17.20;99.90;;;;;;4810170;29;20124;-87
2022/07/27 08:17:55;;;;;;;0.00;0.00;;;17.30;99.90;;;;;;4792146;29;20065;-86
2022/07/27 08:20:23;;;;;;;0.00;0.00;;;17.50;99.90;;;;;;4817300;29;20050;-87
2022/07/27 08:22:48;;;;;;;0.28;0.10;;;17.50;99.90;;;;;;4841950;29;20120;-87
2022/07/27 08:25:14;;;;;;;0.10;0.10;;;17.50;99.90;;;;;;4796537;29;20553;-87
2022/07/27 08:27:40;;;;;;;0.38;0.38;;;17.60;99.90;;;;;;4810643;29;20046;-87
2022/07/27 08:30:07;;;;;;;0.00;0.00;;;17.70;99.90;;;;;;4826869;29;20082;-86
2022/07/27 08:32:44;;;;;;;0.03;0.03;;;17.70;99.90;;;;;;4810967;29;20054;-87
2022/07/27 08:35:09;;;;;;;0.35;0.20;;;17.70;99.90;;;;;;4824735;29;20096;-87
2022/07/27 08:37:35;;;;;;;0.00;0.00;;;17.60;99.90;;;;;;4806820;29;20077;-87
2022/07/27 08:40:01;;;;;;;0.40;0.20;;;17.50;99.90;;;;;;4816536;29;20527;-87
2022/07/27 08:42:26;;;;;;;0.05;0.05;;;17.20;99.90;;;;;;4816309;29;20287;-87
2022/07/27 08:44:53;;;;;;;0.03;0.03;;;17.20;99.90;;;;;;4808685;29;20046;-88
2022/07/27 08:47:21;;;;;;;0.10;0.08;;;16.90;99.90;;;;;;4810118;29;20086;-87
2022/07/27 08:49:47;;;;;;;0.00;0.00;;;16.80;99.90;;;;;;4826130;29;20050;-87
2022/07/27 08:52:13;;;;;;;0.20;0.10;;;16.60;99.90;;;;;;4808546;29;20137;-87
2022/07/27 08:54:42;;;;;;;0.10;0.10;;;16.50;99.90;;;;;;4794773;29;20050;-87
2022/07/27 08:57:09;;;;;;;0.10;0.10;;;16.40;99.90;;;;;;4821225;29;20106;-88
2022/07/27 08:59:37;;;;;;;0.00;0.00;;;16.30;99.90;;;;;;4830033;29;20046;-89
2022/07/27 09:02:12;;;;;;;0.03;0.03;;;16.50;99.90;;;;;;4798228;29;20407;-89
2022/07/27 09:04:41;;;;;;;0.00;0.00;;;16.20;99.90;;;;;;4810548;29;20402;-89
2022/07/27 09:07:07;;;;;;;0.20;0.20;;;16.20;99.90;;;;;;4824813;29;20058;-88
2022/07/27 09:09:45;;;;;;;0.00;0.00;;;16.20;99.90;;;;;;4820535;29;20061;-91
2022/07/27 09:12:11;;;;;;;0.03;0.03;;;16.30;99.90;;;;;;4820069;29;20570;-87
2022/07/27 09:14:39;;;;;;;0.15;0.10;;;16.20;99.90;;;;;;4813549;29;20049;-85
2022/07/27 09:17:25;;;;;;;0.00;0.00;;;16.30;99.90;;;;;;4821373;29;20149;-86
2022/07/27 09:19:59;;;;;;;0.00;0.00;;;16.20;99.90;;;;;;4790660;29;20524;-86
2022/07/27 09:22:51;;;;;;;0.10;0.10;;;16.30;99.90;;;;;;4808232;29;20075;-86
2022/07/27 09:25:20;;;;;;;0.00;0.00;;;16.40;99.90;;;;;;4793950;29;20108;-86
2022/07/27 09:27:48;;;;;;;0.00;0.00;;;16.40;99.90;;;;;;4809315;29;20046;-84
2022/07/27 09:30:16;;;;;;;0.00;0.00;;;16.40;99.90;;;;;;4818029;29;20046;-82
2022/07/27 09:33:08;;;;;;;0.10;0.10;;;16.50;99.90;;;;;;4799998;29;20474;-84
2022/07/27 09:35:35;;;;;;;0.20;0.20;;;16.60;99.90;;;;;;4790908;29;20085;-83
2022/07/27 09:38:20;;;;;;;0.10;0.10;;;16.60;99.90;;;;;;4792081;29;20058;-83
2022/07/27 09:40:49;;;;;;;0.00;0.00;;;16.70;99.90;;;;;;4825411;29;20084;-83
2022/07/27 09:43:15;;;;;;;0.25;0.20;;;15.90;99.90;;;;;;4826264;29;20446;-84
2022/07/27 09:45:44;;;;;;;0.20;0.08;;;17.00;99.90;;;;;;4798817;29;20158;-84
2022/07/27 09:48:19;;;;;;;0.10;0.10;;;17.10;99.90;;;;;;4796316;29;20052;-83
2022/07/27 09:50:57;;;;;;;0.00;0.00;;;17.20;99.90;;;;;;4823119;29;20053;-83
2022/07/27 09:53:25;;;;;;;1.65;0.40;;;17.20;99.90;;;;;;4805157;29;20500;-84
2022/07/27 09:55:57;;;;;;;0.10;0.10;;;17.40;99.90;;;;;;4810054;29;20069;-84
2022/07/27 09:58:59;;;;;;;0.10;0.10;;;17.50;99.90;;;;;;4811758;29;20090;-88
2022/07/27 10:01:29;;;;;;;0.00;0.00;;;18.00;99.90;;;;;;4811926;29;20088;-84
2022/07/27 10:04:02;;;;;;;0.05;0.00;;;17.70;99.90;;;;;;4800002;29;20042;-86
2022/07/27 10:06:29;;;;;;;0.10;0.10;;;17.80;99.90;;;;;;4829840;29;20064;-85
2022/07/27 10:08:56;;;;;;;0.08;0.08;;;18.00;99.90;;;;;;4807027;29;20468;-85
2022/07/27 10:11:30;;;;;;;0.10;0.10;;;17.90;99.90;;;;;;4808274;29;20129;-86
2022/07/27 10:13:58;;;;;;;0.10;0.10;;;17.30;99.90;;;;;;4818146;29;20038;-84
2022/07/27 10:16:29;;;;;;;0.00;0.00;;;18.20;99.90;;;;;;4823915;29;20129;-86
2022/07/27 10:19:21;;;;;;;0.00;0.00;;;18.40;99.90;;;;;;4810170;29;20046;-84
2022/07/27 10:21:48;;;;;;;1.27;0.10;;;18.40;99.90;;;;;;4825860;29;20121;-88
2022/07/27 10:24:35;;;;;;;0.03;0.00;;;18.50;99.90;;;;;;4792338;29;20490;-88
2022/07/27 10:27:25;;;;;;;0.20;0.20;;;18.50;99.90;;;;;;4809787;29;20062;-85
2022/07/27 10:29:51;;;;;;;0.28;0.00;;;18.50;99.90;;;;;;4826568;29;20336;-87
2022/07/27 10:32:30;;;;;;;0.00;0.00;;;18.40;99.90;;;;;;4825247;29;20394;-85
2022/07/27 10:34:56;;;;;;;0.10;0.10;;;17.50;99.90;;;;;;4790560;29;20128;-86
2022/07/27 10:37:30;;;;;;;0.10;0.10;;;18.40;99.90;;;;;;4825989;29;20441;-86
2022/07/27 10:43:06;;;;;;;0.00;0.00;;;18.10;99.90;;;;;;4825796;29;20061;-86
2022/07/27 10:45:44;;;;;;;0.08;0.08;;;18.10;99.90;;;;;;4826487;29;20049;-85
2022/07/27 10:48:40;;;;;;;0.30;0.20;;;18.00;99.90;;;;;;4810677;29;20058;-85
2022/07/27 10:51:09;;;;;;;0.10;0.10;;;18.00;99.90;;;;;;4819301;29;20100;-85
2022/07/27 10:53:38;;;;;;;0.98;0.20;;;18.00;99.90;;;;;;4809710;29;20129;-85
2022/07/27 10:56:06;;;;;;;0.10;0.10;;;18.10;99.90;;;;;;4810671;29;20137;-85
2022/07/27 10:58:31;;;;;;;1.75;0.47;;;18.10;99.90;;;;;;4826837;29;20072;-82
2022/07/27 11:00:58;;;;;;;0.00;0.00;;;18.20;99.90;;;;;;4811486;29;20489;-85
2022/07/27 11:03:27;;;;;;;0.35;0.20;;;18.20;99.90;;;;;;4826175;29;20144;-83
2022/07/27 11:05:57;;;;;;;0.10;0.10;;;18.20;99.90;;;;;;4825618;29;20501;-90
2022/07/27 11:08:31;;;;;;;0.00;0.00;;;18.30;99.90;;;;;;4810855;29;20065;-90
2022/07/27 11:10:59;;;;;;;0.00;0.00;;;19.40;99.90;;;;;;4811014;29;20460;-90
2022/07/27 11:13:38;;;;;;;0.10;0.10;;;18.50;99.90;;;;;;4810785;29;20066;-90
2022/07/27 11:16:09;;;;;;;0.00;0.00;;;18.50;99.90;;;;;;4811336;29;20061;-90
2022/07/27 11:18:37;;;;;;;0.10;0.10;;;18.60;99.90;;;;;;4814496;29;20058;-89
2022/07/27 11:21:22;;;;;;;0.10;0.10;;;17.90;99.90;;;;;;4814471;29;20102;-90
2022/07/27 11:24:12;;;;;;;0.15;0.10;;;18.90;99.90;;;;;;4814318;29;20485;-90
2022/07/27 11:26:46;;;;;;;0.10;0.10;;;19.90;99.90;;;;;;4814684;29;20126;-90
2022/07/27 11:29:16;;;;;;;0.30;0.10;;;18.90;99.90;;;;;;4814316;29;20057;-89
2022/07/27 11:31:45;;;;;;;0.00;0.00;;;18.80;99.90;;;;;;4829500;29;20052;-90
2022/07/27 11:34:22;;;;;;;0.00;0.00;;;18.60;99.90;;;;;;4829342;29;20236;-90
2022/07/27 11:36:53;;;;;;;0.08;0.03;;;18.60;99.90;;;;;;4800623;29;20090;-89
2022/07/27 11:39:28;;;;;;;0.30;0.10;;;18.60;99.90;;;;;;4814089;29;20123;-89
2022/07/27 11:42:21;;;;;;;0.05;0.05;;;17.70;99.90;;;;;;4814373;29;20085;-90
2022/07/27 11:45:00;;;;;;;0.00;0.00;;;17.70;99.90;;;;;;4800404;29;20525;-90
2022/07/27 11:47:36;;;;;;;;;;;;;;;;;;;;;
2022/07/27 11:50:20;;;;;;;;;;;;;;;;;;;;;
2022/07/27 11:53:05;;;;;;;;;;;;;;;;;;;;;
2022/07/27 11:55:36;;;;;;;0.00;0.00;;;18.20;99.90;;;;;;4829618;29;20057;-91
2022/07/27 11:58:17;;;;;;;0.00;0.00;;;18.30;99.90;;;;;;4813912;29;20054;-91
2022/07/27 12:00:46;;;;;;;0.00;0.00;;;18.40;99.90;;;;;;4828922;29;20057;-90
2022/07/27 12:03:46;;;;;;;0.00;0.00;;;18.40;99.90;;;;;;4813534;29;20106;-90
2022/07/27 12:06:35;;;;;;;0.00;0.00;;;18.90;99.90;;;;;;4813075;29;20064;-89
2022/07/27 12:09:05;;;;;;;0.00;0.00;;;18.50;99.90;;;;;;4828019;29;20097;-91
2022/07/27 12:12:19;;;;;;;0.03;0.00;;;18.20;99.90;;;;;;4827991;29;20524;-90
2022/07/27 12:15:06;;;;;;;0.00;0.00;;;18.80;99.90;;;;;;4789287;29;20174;-90
2022/07/27 12:17:36;;;;;;;0.00;0.00;;;18.80;99.90;;;;;;4803539;29;20156;-82
2022/07/27 12:20:11;;;;;;;0.00;0.00;;;19.40;99.90;;;;;;4812619;29;20096;-90
2022/07/27 12:22:52;;;;;;;0.38;0.00;;;19.40;99.90;;;;;;4809552;29;20065;-84
2022/07/27 12:25:18;;;;;;;0.10;0.10;;;19.50;99.90;;;;;;4830157;29;20077;-85
2022/07/27 12:27:54;;;;;;;0.00;0.00;;;19.40;99.90;;;;;;4804391;29;20050;-84
2022/07/27 12:30:27;;;;;;;0.00;0.00;;;19.30;99.90;;;;;;4822761;29;20490;-85
2022/07/27 12:32:53;;;;;;;0.00;0.00;;;19.20;99.90;;;;;;4812962;29;20046;-85
2022/07/27 12:35:26;;;;;;;0.00;0.00;;;19.10;99.90;;;;;;4825672;29;20058;-85
2022/07/27 12:38:03;;;;;;;0.03;0.03;;;19.10;99.90;;;;;;4827289;29;20053;-85
2022/07/27 12:40:32;;;;;;;0.00;0.00;;;19.00;99.90;;;;;;4827125;29;20054;-88
2022/07/27 12:43:03;;;;;;;0.08;0.08;;;18.90;99.90;;;;;;4812538;29;20049;-84
2022/07/27 12:45:39;;;;;;;0.00;0.00;;;18.90;99.90;;;;;;4842165;29;20486;-85
2022/07/27 12:48:10;;;;;;;0.00;0.00;;;18.90;99.90;;;;;;4826940;29;20054;-90
2022/07/27 12:50:38;;;;;;;0.00;0.00;;;19.10;99.90;;;;;;4843974;29;20076;-85
2022/07/27 12:53:04;;;;;;;0.10;0.10;;;19.30;99.90;;;;;;4812612;29;20500;-85
2022/07/27 12:55:30;;;;;;;;;;;19.30;99.90;;;;;;4826719;29;20046;-85
2022/07/27 12:57:56;;;;;;;0.00;0.00;;;19.30;99.90;;;;;;4811536;29;19931;-87
2022/07/27 13:00:23;;;;;;;0.00;0.00;;;19.40;99.90;;;;;;4811862;29;20136;-86
2022/07/27 13:02:49;;;;;;;0.05;0.05;;;19.40;99.90;;;;;;4826637;29;20046;-86
2022/07/27 13:05:16;;;;;;;0.00;0.00;;;19.40;99.90;;;;;;4826798;29;20064;-89
2022/07/27 13:07:46;;;;;;;0.10;0.10;;;19.50;99.90;;;;;;4812226;29;20552;-89
2022/07/27 13:10:22;;;;;;;0.30;0.10;;;19.60;99.90;;;;;;4827393;29;20085;-91
2022/07/27 13:12:48;;;;;;;0.63;0.05;;;19.70;99.90;;;;;;4827904;29;20057;-89
2022/07/27 13:15:15;;;;;;;;;;;19.90;99.90;;;;;;4812827;29;20136;-88
2022/07/27 13:17:42;;;;;;;0.05;0.05;;;20.10;99.90;;;;;;4827580;29;19929;-93
2022/07/27 13:20:11;;;;;;;0.10;0.10;;;20.10;99.90;;;;;;4808966;29;20105;-88
2022/07/27 13:22:39;;;;;;;0.00;0.00;;;20.00;99.90;;;;;;4824564;29;20053;-89
2022/07/27 13:25:08;;;;;;;0.10;0.10;;;19.90;99.90;;;;;;4809028;29;20042;-90
2022/07/27 13:27:37;;;;;;;0.00;0.00;;;19.80;99.90;;;;;;4827287;29;20088;-88
2022/07/27 13:30:05;;;;;;;0.00;0.00;;;19.60;99.90;;;;;;4811079;29;20057;-87
2022/07/27 13:32:37;;;;;;;0.10;0.10;;;19.50;99.90;;;;;;4826421;29;20098;-89
2022/07/27 13:35:06;;;;;;;0.00;0.00;;;19.50;99.90;;;;;;4811708;29;20050;-86
2022/07/27 13:37:32;;;;;;;0.00;0.00;;;19.40;99.90;;;;;;4811997;29;20050;-88
2022/07/27 13:40:00;;;;;;;0.00;0.00;;;19.30;99.90;;;;;;4826744;29;20049;-87